Time;durP1;ratioP1;P1;durP2;ratioP2;P2;SDS_P1;SDS_P2;PMS_P1;PMS_P2;Temp;Humidity;BMP_temperature;BMP_pressure;BME280_temperature;BME280_humidity;BME280_pressure;Samples;Min_cycle;Max_cycle;Signal;HPM_P1;HPM_P2
2022/12/28 00:00:24;;;;;;;1.03;1.03;;;;;;;;;;5035578;28;20214;-60
2022/12/28 00:02:51;;;;;;;0.20;0.20;;;;;;;;;;5057004;28;20484;-60
2022/12/28 00:05:19;;;;;;;0.20;0.20;;;;;;;;;;5034922;28;20463;-61
2022/12/28 00:07:45;;;;;;;0.20;0.20;;;;;;;;;;5057657;28;20277;-60
2022/12/28 00:10:11;;;;;;;0.20;0.20;;;;;;;;;;5033992;28;20274;-62
2022/12/28 00:12:38;;;;;;;0.20;0.20;;;;;;;;;;5058433;28;20483;-60
2022/12/28 00:15:04;;;;;;;0.20;0.20;;;;;;;;;;5043541;28;20396;-61
2022/12/28 00:17:31;;;;;;;0.20;0.20;;;;;;;;;;5051780;28;20554;-60
2022/12/28 00:19:58;;;;;;;0.20;0.20;;;;;;;;;;5047569;28;20386;-59
2022/12/28 00:22:26;;;;;;;0.20;0.20;;;;;;;;;;5052565;28;20574;-59
2022/12/28 00:24:53;;;;;;;0.20;0.20;;;;;;;;;;5047119;28;20214;-59
2022/12/28 00:27:19;;;;;;;0.20;0.20;;;;;;;;;;5052758;28;20243;-61
2022/12/28 00:29:45;;;;;;;0.20;0.20;;;;;;;;;;5047019;28;20247;-59
2022/12/28 00:32:12;;;;;;;0.20;0.20;;;;;;;;;;5052575;28;20262;-60
2022/12/28 00:34:38;;;;;;;0.50;0.50;;;;;;;;;;5047162;28;20515;-58
2022/12/28 00:37:04;;;;;;;0.20;0.20;;;;;;;;;;5052190;28;20258;-59
2022/12/28 00:39:32;;;;;;;0.20;0.20;;;;;;;;;;5047377;28;20479;-60
2022/12/28 00:41:58;;;;;;;0.20;0.20;;;;;;;;;;5051274;28;20576;-60
2022/12/28 00:44:25;;;;;;;0.20;0.20;;;;;;;;;;5047760;28;20278;-60
2022/12/28 00:46:51;;;;;;;0.30;0.30;;;;;;;;;;5050328;28;20582;-59
2022/12/28 00:49:17;;;;;;;0.20;0.20;;;;;;;;;;5048943;28;20558;-60
2022/12/28 00:51:44;;;;;;;0.20;0.20;;;;;;;;;;5049236;28;20254;-60
2022/12/28 00:54:10;;;;;;;0.20;0.20;;;;;;;;;;5049381;28;20255;-60
2022/12/28 00:56:39;;;;;;;0.20;0.20;;;;;;;;;;5048287;28;20304;-60
2022/12/28 00:59:06;;;;;;;0.20;0.20;;;;;;;;;;5050261;28;20483;-60
2022/12/28 01:01:32;;;;;;;0.27;0.27;;;;;;;;;;5047491;28;20236;-60
2022/12/28 01:03:59;;;;;;;0.20;0.20;;;;;;;;;;5051067;28;20457;-59
2022/12/28 01:06:26;;;;;;;0.20;0.20;;;;;;;;;;5046684;28;20258;-59
2022/12/28 01:08:52;;;;;;;0.20;0.20;;;;;;;;;;5051885;28;20231;-60
2022/12/28 01:11:20;;;;;;;0.10;0.10;;;;;;;;;;5045629;28;20508;-60
2022/12/28 01:13:48;;;;;;;0.20;0.20;;;;;;;;;;5052393;28;20211;-58
2022/12/28 01:16:16;;;;;;;0.20;0.20;;;;;;;;;;5044957;28;20245;-60
2022/12/28 01:18:42;;;;;;;0.20;0.20;;;;;;;;;;5052608;28;20230;-60
2022/12/28 01:21:10;;;;;;;0.20;0.20;;;;;;;;;;5044201;28;20243;-60
2022/12/28 01:23:36;;;;;;;0.20;0.20;;;;;;;;;;5053447;28;20211;-60
2022/12/28 01:26:03;;;;;;;0.20;0.20;;;;;;;;;;5043381;28;20253;-60
2022/12/28 01:28:29;;;;;;;0.20;0.20;;;;;;;;;;5054018;28;20538;-60
2022/12/28 01:30:57;;;;;;;0.20;0.20;;;;;;;;;;5042352;28;20565;-60
2022/12/28 01:33:23;;;;;;;0.20;0.20;;;;;;;;;;5055207;28;20515;-60
2022/12/28 01:35:49;;;;;;;0.20;0.20;;;;;;;;;;5041620;28;20465;-60
2022/12/28 01:38:16;;;;;;;0.20;0.20;;;;;;;;;;5055901;28;20285;-58
2022/12/28 01:40:42;;;;;;;0.20;0.20;;;;;;;;;;5040508;28;20308;-59
2022/12/28 01:43:11;;;;;;;0.20;0.20;;;;;;;;;;5056536;28;20211;-59
2022/12/28 01:45:38;;;;;;;0.20;0.20;;;;;;;;;;5039793;28;20317;-59
2022/12/28 01:48:14;;;;;;;0.20;0.20;;;;;;;;;;5057198;28;20192;-59
2022/12/28 01:50:40;;;;;;;0.20;0.20;;;;;;;;;;5040145;28;20261;-59
2022/12/28 01:53:06;;;;;;;0.20;0.20;;;;;;;;;;5056682;28;20283;-59
2022/12/28 01:55:34;;;;;;;0.23;0.23;;;;;;;;;;5039000;28;20266;-59
2022/12/28 01:58:03;;;;;;;0.20;0.20;;;;;;;;;;5057614;28;20237;-60
2022/12/28 02:00:29;;;;;;;0.20;0.20;;;;;;;;;;5038429;28;20608;-59
2022/12/28 02:02:56;;;;;;;0.20;0.20;;;;;;;;;;5058141;28;20206;-59
2022/12/28 02:05:26;;;;;;;0.20;0.20;;;;;;;;;;5037315;28;20209;-59
2022/12/28 02:07:54;;;;;;;0.20;0.20;;;;;;;;;;5058630;28;20209;-59
2022/12/28 02:10:20;;;;;;;0.20;0.20;;;;;;;;;;5037046;28;20505;-59
2022/12/28 02:12:47;;;;;;;0.20;0.20;;;;;;;;;;5059172;28;20237;-60
2022/12/28 02:15:13;;;;;;;0.20;0.20;;;;;;;;;;5036198;28;20389;-59
2022/12/28 02:17:40;;;;;;;0.20;0.20;;;;;;;;;;5059829;28;20473;-60
2022/12/28 02:20:07;;;;;;;0.30;0.30;;;;;;;;;;5045174;28;20298;-59
2022/12/28 02:22:47;;;;;;;0.20;0.20;;;;;;;;;;5033691;28;20218;-59
2022/12/28 02:25:31;;;;;;;0.20;0.20;;;;;;;;;;5035736;28;20238;-60
2022/12/28 02:28:01;;;;;;;0.20;0.20;;;;;;;;;;5057248;28;20207;-59
2022/12/28 02:30:31;;;;;;;0.20;0.20;;;;;;;;;;5037857;28;20290;-60
2022/12/28 02:33:00;;;;;;;0.20;0.20;;;;;;;;;;5057247;28;20198;-59
2022/12/28 02:35:30;;;;;;;0.20;0.20;;;;;;;;;;5037459;28;20279;-59
2022/12/28 02:37:59;;;;;;;0.20;0.20;;;;;;;;;;5057138;28;20244;-59
2022/12/28 02:40:29;;;;;;;0.20;0.20;;;;;;;;;;5036621;28;20278;-58
2022/12/28 02:42:55;;;;;;;0.20;0.20;;;;;;;;;;5057239;28;20238;-60
2022/12/28 02:51:08;;;;;;;0.20;0.20;;;;;;;;;;5041598;28;20494;-61
2022/12/28 02:53:47;;;;;;;0.20;0.20;;;;;;;;;;5051996;28;20477;-58
2022/12/28 02:56:21;;;;;;;0.20;0.20;;;;;;;;;;5042868;28;20243;-59
2022/12/28 02:59:04;;;;;;;0.20;0.20;;;;;;;;;;5050535;28;20532;-60
2022/12/28 03:01:45;;;;;;;0.20;0.20;;;;;;;;;;5045091;28;20306;-59
2022/12/28 03:04:17;;;;;;;0.20;0.20;;;;;;;;;;5044576;28;20246;-59
2022/12/28 03:09:36;;;;;;;0.20;0.20;;;;;;;;;;5044234;28;20221;-60
2022/12/28 03:12:04;;;;;;;0.20;0.20;;;;;;;;;;5048895;28;20253;-60
2022/12/28 03:14:34;;;;;;;0.20;0.20;;;;;;;;;;5044368;28;20454;-60
2022/12/28 03:31:05;;;;;;;0.20;0.20;;;;;;;;;;5039540;28;20264;-59
2022/12/28 03:33:31;;;;;;;0.73;0.73;;;;;;;;;;5051737;28;20213;-59
2022/12/28 03:36:03;;;;;;;0.40;0.40;;;;;;;;;;5040304;28;20261;-59
2022/12/28 03:38:31;;;;;;;0.20;0.20;;;;;;;;;;5052199;28;20525;-60
2022/12/28 03:41:00;;;;;;;0.20;0.20;;;;;;;;;;5040441;28;20281;-59
2022/12/28 03:43:40;;;;;;;0.20;0.20;;;;;;;;;;5052372;28;20528;-59
2022/12/28 03:46:09;;;;;;;0.20;0.20;;;;;;;;;;5041310;28;20316;-59
2022/12/28 03:48:36;;;;;;;0.10;0.10;;;;;;;;;;5050974;28;20194;-59
2022/12/28 03:51:04;;;;;;;0.20;0.20;;;;;;;;;;5040446;28;20242;-60
2022/12/28 03:53:36;;;;;;;0.20;0.20;;;;;;;;;;5051595;28;20410;-59
2022/12/28 03:56:10;;;;;;;0.20;0.20;;;;;;;;;;5040903;28;20241;-60
2022/12/28 03:58:36;;;;;;;0.20;0.20;;;;;;;;;;5050724;28;20295;-59
2022/12/28 04:01:03;;;;;;;5.77;1.23;;;;;;;;;;5040659;28;20304;-60
2022/12/28 04:03:29;;;;;;;0.93;0.93;;;;;;;;;;5051557;28;20242;-59
2022/12/28 04:05:55;;;;;;;0.20;0.20;;;;;;;;;;5039776;28;20248;-59
2022/12/28 04:08:23;;;;;;;0.20;0.20;;;;;;;;;;5052650;28;20230;-59
2022/12/28 04:10:49;;;;;;;0.20;0.20;;;;;;;;;;5038956;28;20257;-59
2022/12/28 04:13:16;;;;;;;0.20;0.20;;;;;;;;;;5053522;28;20232;-60
2022/12/28 04:15:42;;;;;;;0.20;0.20;;;;;;;;;;5038006;28;20253;-59
2022/12/28 04:18:09;;;;;;;0.20;0.20;;;;;;;;;;5054481;28;20256;-59
2022/12/28 04:20:35;;;;;;;0.20;0.20;;;;;;;;;;5036994;28;20248;-59
2022/12/28 04:23:01;;;;;;;0.30;0.30;;;;;;;;;;5055334;28;20263;-60
2022/12/28 04:25:29;;;;;;;0.20;0.20;;;;;;;;;;5036089;28;20253;-60
2022/12/28 04:27:55;;;;;;;0.13;0.13;;;;;;;;;;5056370;28;20196;-60
2022/12/28 04:30:22;;;;;;;0.20;0.20;;;;;;;;;;5034929;28;20230;-60
2022/12/28 04:32:48;;;;;;;0.20;0.20;;;;;;;;;;5057116;28;20275;-60
2022/12/28 04:35:14;;;;;;;0.20;0.20;;;;;;;;;;5034122;28;20242;-60
2022/12/28 04:37:41;;;;;;;0.30;0.30;;;;;;;;;;5057578;28;20227;-60
2022/12/28 04:40:07;;;;;;;0.20;0.20;;;;;;;;;;5037957;28;20262;-61
2022/12/28 04:42:35;;;;;;;0.20;0.20;;;;;;;;;;5058322;28;20289;-60
2022/12/28 04:45:02;;;;;;;0.37;0.37;;;;;;;;;;5043038;28;20239;-61
2022/12/28 04:47:28;;;;;;;0.20;0.20;;;;;;;;;;5048664;28;20252;-60
2022/12/28 04:49:54;;;;;;;0.43;0.43;;;;;;;;;;5042973;28;20204;-60
2022/12/28 04:52:21;;;;;;;0.20;0.20;;;;;;;;;;5048504;28;20585;-62
2022/12/28 04:54:47;;;;;;;0.20;0.20;;;;;;;;;;5042968;28;20209;-59
2022/12/28 04:57:14;;;;;;;0.20;0.20;;;;;;;;;;5048467;28;20516;-60
2022/12/28 04:59:41;;;;;;;0.20;0.20;;;;;;;;;;5042703;28;20236;-60
2022/12/28 05:02:08;;;;;;;0.20;0.20;;;;;;;;;;5049233;28;20313;-60
2022/12/28 05:04:34;;;;;;;0.40;0.40;;;;;;;;;;5046593;28;20526;-60
2022/12/28 05:07:00;;;;;;;0.20;0.20;;;;;;;;;;5051010;28;20253;-60
2022/12/28 05:09:27;;;;;;;0.30;0.30;;;;;;;;;;5047405;28;20232;-59
2022/12/28 05:11:53;;;;;;;0.20;0.20;;;;;;;;;;5050176;28;20251;-60
2022/12/28 05:14:20;;;;;;;0.20;0.20;;;;;;;;;;5047940;28;20207;-60
2022/12/28 05:16:49;;;;;;;0.30;0.30;;;;;;;;;;5049024;28;20257;-60
2022/12/28 05:19:16;;;;;;;0.90;0.83;;;;;;;;;;5048343;28;20231;-59
2022/12/28 05:21:42;;;;;;;0.10;0.10;;;;;;;;;;5048527;28;20250;-60
2022/12/28 05:24:08;;;;;;;0.30;0.30;;;;;;;;;;5049119;28;20272;-60
2022/12/28 05:26:35;;;;;;;0.10;0.10;;;;;;;;;;5047349;28;20242;-60
2022/12/28 05:29:01;;;;;;;0.20;0.20;;;;;;;;;;5050457;28;20277;-61
2022/12/28 05:31:28;;;;;;;1.73;1.73;;;;;;;;;;5046464;28;20243;-60
2022/12/28 05:33:55;;;;;;;0.47;0.47;;;;;;;;;;5050830;28;20278;-60
2022/12/28 05:36:23;;;;;;;0.20;0.20;;;;;;;;;;5045662;28;20243;-60
2022/12/28 05:38:49;;;;;;;0.20;0.20;;;;;;;;;;5051362;28;20279;-61
2022/12/28 05:41:17;;;;;;;0.20;0.20;;;;;;;;;;5044881;28;20267;-60
2022/12/28 05:43:44;;;;;;;0.20;0.20;;;;;;;;;;5051982;28;20274;-59
2022/12/28 05:46:11;;;;;;;0.20;0.20;;;;;;;;;;5043619;28;20305;-60
2022/12/28 05:48:39;;;;;;;0.20;0.20;;;;;;;;;;5053099;28;20274;-60
2022/12/28 05:51:08;;;;;;;0.20;0.20;;;;;;;;;;5043230;28;20253;-60
2022/12/28 05:53:34;;;;;;;0.30;0.30;;;;;;;;;;5053043;28;20255;-60
2022/12/28 05:56:03;;;;;;;0.23;0.23;;;;;;;;;;5042396;28;20239;-61
2022/12/28 05:58:29;;;;;;;0.20;0.20;;;;;;;;;;5054441;28;20227;-60
2022/12/28 06:01:03;;;;;;;0.20;0.20;;;;;;;;;;5041358;28;20580;-60
2022/12/28 06:03:29;;;;;;;0.20;0.20;;;;;;;;;;5054040;28;20220;-60
2022/12/28 06:05:55;;;;;;;0.33;0.33;;;;;;;;;;5041678;28;20494;-60
2022/12/28 06:08:23;;;;;;;0.20;0.20;;;;;;;;;;5054839;28;20522;-60
2022/12/28 06:10:49;;;;;;;0.20;0.20;;;;;;;;;;5040775;28;20244;-60
2022/12/28 06:13:16;;;;;;;0.20;0.20;;;;;;;;;;5055400;28;20213;-60
2022/12/28 06:15:42;;;;;;;0.20;0.20;;;;;;;;;;5039629;28;20242;-60
2022/12/28 06:18:08;;;;;;;5.23;1.03;;;;;;;;;;5055968;28;20262;-59
2022/12/28 06:20:35;;;;;;;0.20;0.20;;;;;;;;;;5038496;28;20314;-59
2022/12/28 06:23:01;;;;;;;0.20;0.20;;;;;;;;;;5057159;28;20209;-61
2022/12/28 06:25:29;;;;;;;0.20;0.20;;;;;;;;;;5037325;28;20276;-59
2022/12/28 06:27:55;;;;;;;0.33;0.33;;;;;;;;;;5057933;28;20222;-60
2022/12/28 06:30:21;;;;;;;0.20;0.20;;;;;;;;;;5036646;28;20240;-60
2022/12/28 06:32:48;;;;;;;0.27;0.27;;;;;;;;;;5058665;28;20227;-59
2022/12/28 06:35:14;;;;;;;0.20;0.20;;;;;;;;;;5035661;28;20250;-59
2022/12/28 06:37:40;;;;;;;0.40;0.40;;;;;;;;;;5059548;28;20193;-59
2022/12/28 06:40:07;;;;;;;0.20;0.20;;;;;;;;;;5042827;28;20227;-62
2022/12/28 06:42:35;;;;;;;0.70;0.70;;;;;;;;;;5060154;28;20221;-59
2022/12/28 06:45:01;;;;;;;0.30;0.30;;;;;;;;;;5044833;28;20218;-60
2022/12/28 06:47:28;;;;;;;0.20;0.20;;;;;;;;;;5050210;28;20244;-59
2022/12/28 06:49:54;;;;;;;0.30;0.30;;;;;;;;;;5044631;28;20201;-59
2022/12/28 06:52:21;;;;;;;0.20;0.20;;;;;;;;;;5049868;28;20259;-60
2022/12/28 06:54:47;;;;;;;0.20;0.20;;;;;;;;;;5044294;28;20203;-59
2022/12/28 06:57:13;;;;;;;0.20;0.20;;;;;;;;;;5049852;28;20310;-59
2022/12/28 06:59:41;;;;;;;0.40;0.40;;;;;;;;;;5044127;28;20224;-59
2022/12/28 07:02:08;;;;;;;0.30;0.30;;;;;;;;;;5049818;28;20488;-60
2022/12/28 07:04:35;;;;;;;0.20;0.20;;;;;;;;;;5044567;28;20399;-60
2022/12/28 07:07:01;;;;;;;0.20;0.20;;;;;;;;;;5048753;28;20310;-62
2022/12/28 07:09:27;;;;;;;0.20;0.20;;;;;;;;;;5045135;28;20519;-59
2022/12/28 07:11:54;;;;;;;0.40;0.40;;;;;;;;;;5047794;28;20242;-58
2022/12/28 07:14:20;;;;;;;0.20;0.20;;;;;;;;;;5045991;28;20530;-60
2022/12/28 07:16:48;;;;;;;0.30;0.30;;;;;;;;;;5046773;28;20240;-59
2022/12/28 07:19:15;;;;;;;0.20;0.20;;;;;;;;;;5046324;28;20207;-59
2022/12/28 07:21:41;;;;;;;0.17;0.17;;;;;;;;;;5046152;28;20307;-58
2022/12/28 07:24:08;;;;;;;0.43;0.43;;;;;;;;;;5047180;28;20271;-59
2022/12/28 07:26:35;;;;;;;0.10;0.10;;;;;;;;;;5044611;28;20277;-59
2022/12/28 07:29:02;;;;;;;0.10;0.10;;;;;;;;;;5048192;28;20583;-61
2022/12/28 07:31:30;;;;;;;0.60;0.60;;;;;;;;;;5044379;28;20460;-60
2022/12/28 07:33:58;;;;;;;0.20;0.20;;;;;;;;;;5048647;28;20247;-60
2022/12/28 07:36:25;;;;;;;0.20;0.20;;;;;;;;;;5043631;28;20309;-60
2022/12/28 07:38:52;;;;;;;0.20;0.20;;;;;;;;;;5049065;28;20231;-59
2022/12/28 07:41:19;;;;;;;0.17;0.17;;;;;;;;;;5042703;28;20322;-60
2022/12/28 07:43:45;;;;;;;0.20;0.20;;;;;;;;;;5050173;28;20276;-60
2022/12/28 07:46:13;;;;;;;0.20;0.20;;;;;;;;;;5042119;28;20303;-60
2022/12/28 07:48:40;;;;;;;0.20;0.20;;;;;;;;;;5050530;28;20214;-60
2022/12/28 07:51:09;;;;;;;0.20;0.20;;;;;;;;;;5041141;28;20277;-60
2022/12/28 07:53:35;;;;;;;0.20;0.20;;;;;;;;;;5051009;28;20543;-60
2022/12/28 07:56:02;;;;;;;0.73;0.73;;;;;;;;;;5040677;28;20310;-60
2022/12/28 07:58:28;;;;;;;0.20;0.20;;;;;;;;;;5051859;28;20208;-60
2022/12/28 08:00:54;;;;;;;0.20;0.20;;;;;;;;;;5039635;28;20249;-60
2022/12/28 08:03:21;;;;;;;0.20;0.20;;;;;;;;;;5052788;28;20207;-62
2022/12/28 08:05:47;;;;;;;0.10;0.10;;;;;;;;;;5038616;28;20310;-61
2022/12/28 08:08:15;;;;;;;0.20;0.20;;;;;;;;;;5053652;28;20204;-62
2022/12/28 08:10:41;;;;;;;0.67;0.50;;;;;;;;;;5037839;28;20237;-60
2022/12/28 08:13:08;;;;;;;0.40;0.40;;;;;;;;;;5054634;28;20204;-61
2022/12/28 08:15:34;;;;;;;0.20;0.20;;;;;;;;;;5035333;28;20240;-61
2022/12/28 08:18:00;;;;;;;0.20;0.20;;;;;;;;;;5055319;28;20219;-60
2022/12/28 08:20:27;;;;;;;0.20;0.20;;;;;;;;;;5035928;28;23163;-61
2022/12/28 08:22:53;;;;;;;0.40;0.40;;;;;;;;;;5056259;28;20255;-61
2022/12/28 08:25:21;;;;;;;0.20;0.20;;;;;;;;;;5034977;28;20399;-62
2022/12/28 08:27:47;;;;;;;0.37;0.37;;;;;;;;;;5057608;28;20376;-61
2022/12/28 08:30:14;;;;;;;0.50;0.50;;;;;;;;;;5034205;28;20279;-60
2022/12/28 08:32:40;;;;;;;0.10;0.10;;;;;;;;;;5057768;28;20208;-62
2022/12/28 08:35:07;;;;;;;2.30;0.67;;;;;;;;;;5043131;28;20211;-62
2022/12/28 08:37:33;;;;;;;0.30;0.30;;;;;;;;;;5033514;28;20227;-61
2022/12/28 08:39:59;;;;;;;0.20;0.20;;;;;;;;;;5047185;28;20395;-62
2022/12/28 08:42:27;;;;;;;0.20;0.20;;;;;;;;;;5052579;28;20458;-61
2022/12/28 08:44:53;;;;;;;0.20;0.20;;;;;;;;;;5047080;28;20276;-61
2022/12/28 08:47:20;;;;;;;0.20;0.20;;;;;;;;;;5052473;28;20239;-62
2022/12/28 08:49:47;;;;;;;0.20;0.20;;;;;;;;;;5046769;28;20247;-62
2022/12/28 08:52:13;;;;;;;0.10;0.10;;;;;;;;;;5052375;28;20491;-61
2022/12/28 08:54:40;;;;;;;0.23;0.23;;;;;;;;;;5046571;28;20240;-62
2022/12/28 08:57:06;;;;;;;0.10;0.10;;;;;;;;;;5051953;28;20251;-61
2022/12/28 08:59:34;;;;;;;0.20;0.20;;;;;;;;;;5046738;28;20271;-61
2022/12/28 09:02:00;;;;;;;0.50;0.50;;;;;;;;;;5051163;28;20307;-61
2022/12/28 09:04:27;;;;;;;0.17;0.17;;;;;;;;;;5047424;28;20272;-61
2022/12/28 09:06:53;;;;;;;0.13;0.13;;;;;;;;;;5050175;28;20270;-62
2022/12/28 09:09:20;;;;;;;0.10;0.10;;;;;;;;;;5048172;28;20264;-62
2022/12/28 09:11:47;;;;;;;0.10;0.10;;;;;;;;;;5049471;28;20344;-62
2022/12/28 09:14:14;;;;;;;0.10;0.10;;;;;;;;;;5049024;28;20527;-62
2022/12/28 09:16:42;;;;;;;0.20;0.20;;;;;;;;;;5048448;28;20239;-62
2022/12/28 09:19:09;;;;;;;0.10;0.10;;;;;;;;;;5049690;28;20227;-62
2022/12/28 09:21:37;;;;;;;0.10;0.10;;;;;;;;;;5047722;28;20307;-62
2022/12/28 09:24:03;;;;;;;0.10;0.10;;;;;;;;;;5049889;28;20250;-62
2022/12/28 09:26:31;;;;;;;0.63;0.63;;;;;;;;;;5046887;28;20308;-62
2022/12/28 09:28:58;;;;;;;0.20;0.20;;;;;;;;;;5050934;28;20243;-62
2022/12/28 09:31:25;;;;;;;0.40;0.40;;;;;;;;;;5046178;28;20251;-62
2022/12/28 09:33:59;;;;;;;0.20;0.20;;;;;;;;;;5051476;28;20236;-63
2022/12/28 09:36:26;;;;;;;0.20;0.20;;;;;;;;;;5046218;28;20304;-62
2022/12/28 09:38:52;;;;;;;1.90;0.93;;;;;;;;;;5051039;28;20276;-63
2022/12/28 09:41:22;;;;;;;0.20;0.20;;;;;;;;;;5045010;28;20300;-62
2022/12/28 09:43:50;;;;;;;0.20;0.20;;;;;;;;;;5051817;28;20192;-63
2022/12/28 09:46:18;;;;;;;2.80;0.43;;;;;;;;;;5044886;28;20248;-63
2022/12/28 09:48:45;;;;;;;0.10;0.10;;;;;;;;;;5051793;28;20210;-62
2022/12/28 09:51:13;;;;;;;0.10;0.10;;;;;;;;;;5044192;28;20251;-62
2022/12/28 09:53:39;;;;;;;0.20;0.20;;;;;;;;;;5052342;28;20280;-62
2022/12/28 09:56:13;;;;;;;0.10;0.10;;;;;;;;;;5043138;28;20299;-62
2022/12/28 09:58:41;;;;;;;0.10;0.10;;;;;;;;;;5052641;28;20194;-62
2022/12/28 10:01:11;;;;;;;0.40;0.40;;;;;;;;;;5043187;28;20246;-62
2022/12/28 10:03:38;;;;;;;0.37;0.37;;;;;;;;;;5052854;28;20661;-62
2022/12/28 10:06:09;;;;;;;0.40;0.40;;;;;;;;;;5042885;28;20307;-62
2022/12/28 10:08:40;;;;;;;0.10;0.10;;;;;;;;;;5052891;28;20273;-62
2022/12/28 10:11:06;;;;;;;0.50;0.50;;;;;;;;;;5043071;28;20248;-62
2022/12/28 10:13:34;;;;;;;0.10;0.10;;;;;;;;;;5052932;28;20204;-62
2022/12/28 10:16:00;;;;;;;0.10;0.10;;;;;;;;;;5042082;28;20241;-61
2022/12/28 10:18:27;;;;;;;0.13;0.13;;;;;;;;;;5053507;28;20281;-62
2022/12/28 10:20:55;;;;;;;0.13;0.13;;;;;;;;;;5040912;28;20247;-62
2022/12/28 10:23:24;;;;;;;2.37;2.17;;;;;;;;;;5054195;28;20511;-62
2022/12/28 10:25:53;;;;;;;0.20;0.20;;;;;;;;;;5040496;28;20250;-62
2022/12/28 10:28:20;;;;;;;0.10;0.10;;;;;;;;;;5054394;28;20236;-62
2022/12/28 10:30:48;;;;;;;0.10;0.10;;;;;;;;;;5040120;28;20245;-62
2022/12/28 10:33:18;;;;;;;0.10;0.10;;;;;;;;;;5054771;28;20214;-62
2022/12/28 10:35:49;;;;;;;0.20;0.20;;;;;;;;;;5039818;28;20283;-62
2022/12/28 10:38:20;;;;;;;0.20;0.20;;;;;;;;;;5054616;28;20202;-62
2022/12/28 10:40:54;;;;;;;0.60;0.60;;;;;;;;;;5039957;28;20301;-62
2022/12/28 10:43:22;;;;;;;0.20;0.20;;;;;;;;;;5054212;28;20245;-61
2022/12/28 10:45:49;;;;;;;0.20;0.20;;;;;;;;;;5039993;28;20249;-61
2022/12/28 10:48:17;;;;;;;0.10;0.10;;;;;;;;;;5054388;28;20206;-61
2022/12/28 10:50:46;;;;;;;0.20;0.20;;;;;;;;;;5039235;28;20327;-62
2022/12/28 10:53:16;;;;;;;0.13;0.13;;;;;;;;;;5054787;28;20245;-62
2022/12/28 10:55:43;;;;;;;0.10;0.10;;;;;;;;;;5038941;28;20249;-62
2022/12/28 10:58:19;;;;;;;0.10;0.10;;;;;;;;;;5055387;28;20279;-62
2022/12/28 11:00:53;;;;;;;0.20;0.20;;;;;;;;;;5037762;28;20231;-62
2022/12/28 11:03:23;;;;;;;0.10;0.10;;;;;;;;;;5054628;28;20206;-62
2022/12/28 11:05:49;;;;;;;0.20;0.20;;;;;;;;;;5039840;28;20268;-62
2022/12/28 11:08:16;;;;;;;0.10;0.10;;;;;;;;;;5054037;28;20206;-62
2022/12/28 11:10:42;;;;;;;0.10;0.10;;;;;;;;;;5038945;28;20478;-61
2022/12/28 11:13:16;;;;;;;0.33;0.33;;;;;;;;;;5055164;28;20237;-62
2022/12/28 11:15:43;;;;;;;0.10;0.10;;;;;;;;;;5038599;28;20304;-62
2022/12/28 11:18:14;;;;;;;0.10;0.10;;;;;;;;;;5054914;28;20430;-62
2022/12/28 11:20:42;;;;;;;0.10;0.10;;;;;;;;;;5038358;28;20304;-62
2022/12/28 11:23:09;;;;;;;0.10;0.10;;;;;;;;;;5054686;28;20304;-62
2022/12/28 11:25:36;;;;;;;0.20;0.20;;;;;;;;;;5037525;28;20499;-63
2022/12/28 11:28:06;;;;;;;0.20;0.20;;;;;;;;;;5055838;28;20560;-62
2022/12/28 11:30:32;;;;;;;0.37;0.37;;;;;;;;;;5036970;28;20313;-63
2022/12/28 11:33:00;;;;;;;0.10;0.10;;;;;;;;;;5055894;28;20256;-62
2022/12/28 11:35:28;;;;;;;0.10;0.10;;;;;;;;;;5036544;28;20352;-62
2022/12/28 11:37:56;;;;;;;0.10;0.10;;;;;;;;;;5056609;28;20418;-62
2022/12/28 11:40:45;;;;;;;0.20;0.20;;;;;;;;;;5035759;28;20206;-62
2022/12/28 11:43:26;;;;;;;0.10;0.10;;;;;;;;;;5054263;28;20271;-62
2022/12/28 11:45:54;;;;;;;0.10;0.10;;;;;;;;;;5039440;28;20240;-64
2022/12/28 11:48:45;;;;;;;0.20;0.20;;;;;;;;;;5053056;28;20273;-62
2022/12/28 11:51:16;;;;;;;2.00;0.90;;;;;;;;;;5041975;28;20488;-62
2022/12/28 11:53:50;;;;;;;6.97;5.83;;;;;;;;;;5050047;28;20242;-63
2022/12/28 11:56:17;;;;;;;0.10;0.10;;;;;;;;;;5042311;28;20274;-63
2022/12/28 11:58:45;;;;;;;0.10;0.10;;;;;;;;;;5049848;28;20277;-63
2022/12/28 12:01:12;;;;;;;0.60;0.60;;;;;;;;;;5041260;28;20307;-62
2022/12/28 12:03:53;;;;;;;0.13;0.13;;;;;;;;;;5050655;28;20236;-63
2022/12/28 12:06:21;;;;;;;0.37;0.37;;;;;;;;;;5019963;28;20273;-62
2022/12/28 12:08:48;;;;;;;0.10;0.10;;;;;;;;;;5049403;28;20204;-62
2022/12/28 12:11:21;;;;;;;0.10;0.10;;;;;;;;;;5043065;28;20259;-63
2022/12/28 12:13:48;;;;;;;0.10;0.10;;;;;;;;;;5053562;28;20273;-62
2022/12/28 12:16:18;;;;;;;0.20;0.20;;;;;;;;;;5046057;28;20305;-62
2022/12/28 12:18:46;;;;;;;0.10;0.10;;;;;;;;;;5053589;28;20227;-63
2022/12/28 12:21:20;;;;;;;0.10;0.10;;;;;;;;;;5045930;28;20240;-63
2022/12/28 12:23:50;;;;;;;0.10;0.10;;;;;;;;;;5053581;28;20539;-62
2022/12/28 12:26:20;;;;;;;0.20;0.20;;;;;;;;;;5045658;28;20249;-62
2022/12/28 12:28:48;;;;;;;0.87;0.57;;;;;;;;;;5053872;28;20222;-62
2022/12/28 12:31:16;;;;;;;0.10;0.10;;;;;;;;;;5045839;28;20247;-62
2022/12/28 12:33:44;;;;;;;0.40;0.40;;;;;;;;;;5054096;28;20236;-62
2022/12/28 12:36:19;;;;;;;0.20;0.20;;;;;;;;;;5045388;28;20456;-62
2022/12/28 12:38:55;;;;;;;0.10;0.10;;;;;;;;;;5053258;28;20264;-62
2022/12/28 12:41:27;;;;;;;0.10;0.10;;;;;;;;;;5046657;28;20262;-62
2022/12/28 12:44:04;;;;;;;0.10;0.10;;;;;;;;;;5052081;28;20220;-62
2022/12/28 12:46:40;;;;;;;0.10;0.10;;;;;;;;;;5047729;28;20237;-62
2022/12/28 12:49:16;;;;;;;0.60;0.60;;;;;;;;;;5050172;28;20265;-62
2022/12/28 12:51:46;;;;;;;0.10;0.10;;;;;;;;;;5049143;28;20266;-62
2022/12/28 12:54:25;;;;;;;0.10;0.10;;;;;;;;;;5049279;28;20286;-62
2022/12/28 12:56:54;;;;;;;0.20;0.20;;;;;;;;;;5050142;28;20284;-63
2022/12/28 12:59:30;;;;;;;0.10;0.10;;;;;;;;;;5048406;28;20210;-63
2022/12/28 13:02:00;;;;;;;0.10;0.10;;;;;;;;;;5050303;28;20244;-63
2022/12/28 13:04:29;;;;;;;0.30;0.30;;;;;;;;;;5048105;28;20242;-63
2022/12/28 13:06:56;;;;;;;0.10;0.10;;;;;;;;;;5050374;28;20238;-63
2022/12/28 13:09:25;;;;;;;0.20;0.20;;;;;;;;;;5048167;28;20583;-63
2022/12/28 13:11:52;;;;;;;0.10;0.10;;;;;;;;;;5049966;28;20281;-62
2022/12/28 13:14:20;;;;;;;0.10;0.10;;;;;;;;;;5048631;28;20444;-63
2022/12/28 13:16:47;;;;;;;0.97;0.87;;;;;;;;;;5049000;28;20247;-64
2022/12/28 13:19:17;;;;;;;0.20;0.20;;;;;;;;;;5048670;28;20278;-62
2022/12/28 13:21:44;;;;;;;0.10;0.10;;;;;;;;;;5048629;28;20248;-62
2022/12/28 13:24:18;;;;;;;0.10;0.10;;;;;;;;;;5048215;28;20236;-62
2022/12/28 13:26:46;;;;;;;0.10;0.10;;;;;;;;;;5048717;28;20566;-63
2022/12/28 13:29:15;;;;;;;0.10;0.10;;;;;;;;;;5048848;28;20279;-63
2022/12/28 13:31:48;;;;;;;0.10;0.10;;;;;;;;;;5048277;28;20303;-63
2022/12/28 13:34:16;;;;;;;0.10;0.10;;;;;;;;;;5048725;28;20196;-63
2022/12/28 13:36:49;;;;;;;0.10;0.10;;;;;;;;;;5048412;28;20239;-63
2022/12/28 13:39:17;;;;;;;0.10;0.10;;;;;;;;;;5048255;28;20394;-64
2022/12/28 13:41:47;;;;;;;0.30;0.30;;;;;;;;;;5048426;28;20468;-63
2022/12/28 13:44:28;;;;;;;0.10;0.10;;;;;;;;;;5048502;28;20207;-63
2022/12/28 13:46:57;;;;;;;0.10;0.10;;;;;;;;;;5041128;28;20303;-63
2022/12/28 13:49:25;;;;;;;0.10;0.10;;;;;;;;;;5047065;28;20235;-66
2022/12/28 13:51:52;;;;;;;0.10;0.10;;;;;;;;;;5049098;28;20266;-63
2022/12/28 13:54:18;;;;;;;2.00;1.90;;;;;;;;;;5047309;28;20287;-64
2022/12/28 13:56:49;;;;;;;0.10;0.10;;;;;;;;;;5048203;28;20260;-63
2022/12/28 13:59:17;;;;;;;0.10;0.10;;;;;;;;;;5047769;28;20406;-62
2022/12/28 14:01:44;;;;;;;0.17;0.17;;;;;;;;;;5047877;28;20595;-63
2022/12/28 14:04:15;;;;;;;0.10;0.10;;;;;;;;;;5048090;28;20238;-62
2022/12/28 14:06:42;;;;;;;0.10;0.10;;;;;;;;;;5047740;28;20240;-62
2022/12/28 14:09:09;;;;;;;0.10;0.10;;;;;;;;;;5048336;28;20278;-62
2022/12/28 14:11:36;;;;;;;1.20;0.67;;;;;;;;;;5047032;28;20310;-63
2022/12/28 14:14:04;;;;;;;0.20;0.20;;;;;;;;;;5049038;28;20234;-62
2022/12/28 14:16:31;;;;;;;0.10;0.10;;;;;;;;;;5046060;28;20244;-62
2022/12/28 14:18:58;;;;;;;0.20;0.20;;;;;;;;;;5049879;28;20576;-63
2022/12/28 14:21:37;;;;;;;0.10;0.10;;;;;;;;;;5045158;28;20567;-63
2022/12/28 14:24:05;;;;;;;0.10;0.10;;;;;;;;;;5048762;28;20206;-63
2022/12/28 14:26:33;;;;;;;0.10;0.10;;;;;;;;;;5045510;28;20303;-63
2022/12/28 14:28:59;;;;;;;0.10;0.10;;;;;;;;;;5049765;28;20214;-62
2022/12/28 14:31:28;;;;;;;0.10;0.10;;;;;;;;;;5045156;28;20578;-62
2022/12/28 14:33:55;;;;;;;0.10;0.10;;;;;;;;;;5049591;28;20266;-63
2022/12/28 14:36:24;;;;;;;0.13;0.13;;;;;;;;;;5043632;28;20235;-63
2022/12/28 14:38:52;;;;;;;0.20;0.20;;;;;;;;;;5050268;28;20218;-62
2022/12/28 14:41:28;;;;;;;0.10;0.10;;;;;;;;;;5044053;28;20264;-62
2022/12/28 14:43:55;;;;;;;0.10;0.10;;;;;;;;;;5049514;28;20224;-65
2022/12/28 14:46:31;;;;;;;0.10;0.10;;;;;;;;;;5044264;28;20339;-63
2022/12/28 14:48:57;;;;;;;0.10;0.10;;;;;;;;;;5049593;28;20265;-62
2022/12/28 14:51:25;;;;;;;0.10;0.10;;;;;;;;;;5044427;28;20240;-62
2022/12/28 14:54:09;;;;;;;0.10;0.10;;;;;;;;;;5049654;28;20232;-63
2022/12/28 14:56:37;;;;;;;0.20;0.20;;;;;;;;;;5045463;28;20261;-63
2022/12/28 14:59:03;;;;;;;0.20;0.20;;;;;;;;;;5048892;28;20206;-63
2022/12/28 15:01:41;;;;;;;0.10;0.10;;;;;;;;;;5045091;28;20304;-63
2022/12/28 15:04:07;;;;;;;0.10;0.10;;;;;;;;;;5047958;28;20440;-62
2022/12/28 15:06:33;;;;;;;0.13;0.13;;;;;;;;;;5045528;28;20568;-63
2022/12/28 15:09:00;;;;;;;0.10;0.10;;;;;;;;;;5048669;28;20373;-62
2022/12/28 15:11:29;;;;;;;0.10;0.10;;;;;;;;;;5044584;28;20244;-63